Butterfly — C6UP2 — position and weather

sailwx.info

Track history (hours):
 
Tides and Currents Weather Stations Pressure Air Temp Water Temp Dewpoint Dewpoint Depression Visibility Wind Speed Wind Dir Waves Ship Positions

Butterfly

Last reported at 2014-Dec-27 12:20 UTC. Time now 2015-Jan-25 20:20 UTC.
Position N 24°59' W 077°34'.
Warning: this ship's position is 29 days out of date.

Length 182 m; draft 8 m.

Type: Tanker. MMSI: 311985000.

Date/timePositionNaut miles runAvg speedWind from/ knotsBaromVisibWave heightAir tempDewpointWater temp
2014-Dec-27 12:20N 24°59' W 077°34'8 2.6
2014-Dec-27 09:11N 24°58' W 077°43'  
2014-Dec-23 04:04N 26°23' W 078°48'59 2.5
2014-Dec-22 04:08N 27°15' W 079°20'811.6
2014-Dec-22 03:25N 27°23' W 079°18'1112.2
2014-Dec-22 02:33N 27°32' W 079°11'  
2014-Dec-19 14:30N 39°28' W 073°53'1313.6
2014-Dec-19 13:33N 39°41' W 073°52'1313.5
2014-Dec-19 12:34N 39°54' W 073°51'1413.5
2014-Dec-19 11:33N 40°08' W 073°50'9 9.5
2014-Dec-19 10:33N 40°17' W 073°49'10 8.6
2014-Dec-19 09:26N 40°27' W 073°49'8 9.0
2014-Dec-19 08:33N 40°31' W 073°58'9 8.9
2014-Dec-19 07:33N 40°38' W 074°04'0 0.1
2014-Dec-19 06:32N 40°38' W 074°04'0 0.0
2014-Dec-19 05:32N 40°38' W 074°04'0 0.0
2014-Dec-19 04:29N 40°38' W 074°04'0 0.0
2014-Dec-19 03:32N 40°38' W 074°04'0 0.0
2014-Dec-19 02:29N 40°38' W 074°04'0 0.0
2014-Dec-19 01:29N 40°38' W 074°04'0 0.0
2014-Dec-19 00:32N 40°38' W 074°04'2 2.3
2014-Dec-18 23:31N 40°39' W 074°07'0 0.0
2014-Dec-18 22:31N 40°39' W 074°07'0 0.0
2014-Dec-18 21:31N 40°39' W 074°07'0 0.0
2014-Dec-18 20:31N 40°39' W 074°07'0 0.0
2014-Dec-18 19:31N 40°39' W 074°07'0 0.0
2014-Dec-18 18:31N 40°39' W 074°07'0 0.0
2014-Dec-18 17:31N 40°39' W 074°07'0 0.0
2014-Dec-18 16:31N 40°39' W 074°07'0 0.0
2014-Dec-18 15:31N 40°39' W 074°07'0 0.0
2014-Dec-18 14:28N 40°39' W 074°07'0 0.0
2014-Dec-18 13:31N 40°39' W 074°07'0 0.0
2014-Dec-18 12:31N 40°39' W 074°07'0 0.0
2014-Dec-18 11:31N 40°39' W 074°07'0 0.0
2014-Dec-18 10:31N 40°39' W 074°07'0 0.0
2014-Dec-18 09:31N 40°39' W 074°07'0 0.0
2014-Dec-18 08:31N 40°39' W 074°07'0 0.0
2014-Dec-18 07:31N 40°39' W 074°07'0 0.0
2014-Dec-18 06:31N 40°39' W 074°07'0 0.0
2014-Dec-18 05:31N 40°39' W 074°07'0 0.0
2014-Dec-18 04:31N 40°39' W 074°07'0 0.0
2014-Dec-18 03:31N 40°39' W 074°07'0 0.0
2014-Dec-18 02:28N 40°39' W 074°07'0 0.0
2014-Dec-18 01:31N 40°39' W 074°07'0 0.0
2014-Dec-18 00:31N 40°39' W 074°07'0 0.0
2014-Dec-17 23:31N 40°39' W 074°07'0 0.0
2014-Dec-17 22:31N 40°39' W 074°07'0 0.0
2014-Dec-17 21:31N 40°39' W 074°07'0 0.0
2014-Dec-17 20:31N 40°39' W 074°07'0 0.0
2014-Dec-17 19:31N 40°39' W 074°07'0 0.0
2014-Dec-17 18:31N 40°39' W 074°07'0 0.0
2014-Dec-17 17:31N 40°39' W 074°07'0 0.0
2014-Dec-17 16:31N 40°39' W 074°07'0 0.0
2014-Dec-17 15:31N 40°39' W 074°07'0 0.0
2014-Dec-17 14:31N 40°39' W 074°07'0 0.0
2014-Dec-17 13:31N 40°39' W 074°07'0 0.0
2014-Dec-17 12:31N 40°39' W 074°07'  
Track history (hours):
 
Tides and Currents Weather Stations Pressure Air Temp Water Temp Dewpoint Dewpoint Depression Visibility Wind Speed Wind Dir Waves Ship Positions

Butterfly

Last reported at 2014-Dec-27 12:20 UTC. Time now 2015-Jan-25 20:20 UTC.
Position N 24°59' W 077°34'.
Warning: this ship's position is 29 days out of date.

Length 182 m; draft 8 m.

Type: Tanker. MMSI: 311985000.

Date/timePositionNaut miles runAvg speedWind from/ knotsBaromVisibWave heightAir tempDewpointWater temp
2014-Dec-27 12:20N 24°59' W 077°34'8 2.6
2014-Dec-27 09:11N 24°58' W 077°43'  
2014-Dec-23 04:04N 26°23' W 078°48'59 2.5
2014-Dec-22 04:08N 27°15' W 079°20'811.6
2014-Dec-22 03:25N 27°23' W 079°18'1112.2
2014-Dec-22 02:33N 27°32' W 079°11'  
2014-Dec-19 14:30N 39°28' W 073°53'1313.6
2014-Dec-19 13:33N 39°41' W 073°52'1313.5
2014-Dec-19 12:34N 39°54' W 073°51'1413.5
2014-Dec-19 11:33N 40°08' W 073°50'9 9.5
2014-Dec-19 10:33N 40°17' W 073°49'10 8.6
2014-Dec-19 09:26N 40°27' W 073°49'8 9.0
2014-Dec-19 08:33N 40°31' W 073°58'9 8.9
2014-Dec-19 07:33N 40°38' W 074°04'0 0.1
2014-Dec-19 06:32N 40°38' W 074°04'0 0.0
2014-Dec-19 05:32N 40°38' W 074°04'0 0.0
2014-Dec-19 04:29N 40°38' W 074°04'0 0.0
2014-Dec-19 03:32N 40°38' W 074°04'0 0.0
2014-Dec-19 02:29N 40°38' W 074°04'0 0.0
2014-Dec-19 01:29N 40°38' W 074°04'0 0.0
2014-Dec-19 00:32N 40°38' W 074°04'2 2.3
2014-Dec-18 23:31N 40°39' W 074°07'0 0.0
2014-Dec-18 22:31N 40°39' W 074°07'0 0.0
2014-Dec-18 21:31N 40°39' W 074°07'0 0.0
2014-Dec-18 20:31N 40°39' W 074°07'0 0.0
2014-Dec-18 19:31N 40°39' W 074°07'0 0.0
2014-Dec-18 18:31N 40°39' W 074°07'0 0.0
2014-Dec-18 17:31N 40°39' W 074°07'0 0.0
2014-Dec-18 16:31N 40°39' W 074°07'0 0.0
2014-Dec-18 15:31N 40°39' W 074°07'0 0.0
2014-Dec-18 14:28N 40°39' W 074°07'0 0.0
2014-Dec-18 13:31N 40°39' W 074°07'0 0.0
2014-Dec-18 12:31N 40°39' W 074°07'0 0.0
2014-Dec-18 11:31N 40°39' W 074°07'0 0.0
2014-Dec-18 10:31N 40°39' W 074°07'0 0.0
2014-Dec-18 09:31N 40°39' W 074°07'0 0.0
2014-Dec-18 08:31N 40°39' W 074°07'0 0.0
2014-Dec-18 07:31N 40°39' W 074°07'0 0.0
2014-Dec-18 06:31N 40°39' W 074°07'0 0.0
2014-Dec-18 05:31N 40°39' W 074°07'0 0.0
2014-Dec-18 04:31N 40°39' W 074°07'0 0.0
2014-Dec-18 03:31N 40°39' W 074°07'0 0.0
2014-Dec-18 02:28N 40°39' W 074°07'0 0.0
2014-Dec-18 01:31N 40°39' W 074°07'0 0.0
2014-Dec-18 00:31N 40°39' W 074°07'0 0.0
2014-Dec-17 23:31N 40°39' W 074°07'0 0.0
2014-Dec-17 22:31N 40°39' W 074°07'0 0.0
2014-Dec-17 21:31N 40°39' W 074°07'0 0.0
2014-Dec-17 20:31N 40°39' W 074°07'0 0.0
2014-Dec-17 19:31N 40°39' W 074°07'0 0.0
2014-Dec-17 18:31N 40°39' W 074°07'0 0.0
2014-Dec-17 17:31N 40°39' W 074°07'0 0.0
2014-Dec-17 16:31N 40°39' W 074°07'0 0.0
2014-Dec-17 15:31N 40°39' W 074°07'0 0.0
2014-Dec-17 14:31N 40°39' W 074°07'0 0.0
2014-Dec-17 13:31N 40°39' W 074°07'0 0.0
2014-Dec-17 12:31N 40°39' W 074°07'  

Dump ship's entire track history